createdAt,value
2023-10-20T00:01:34.731Z,51.67
2023-10-20T00:04:04.792Z,51.93
2023-10-20T00:06:31.686Z,51.91
2023-10-20T00:08:59.564Z,51.79
2023-10-20T00:11:27.296Z,51.81
2023-10-20T00:13:55.286Z,51.64
2023-10-20T00:16:30.039Z,51.76
2023-10-20T00:18:57.894Z,51.88
2023-10-20T00:21:27.562Z,51.82
2023-10-20T00:23:54.400Z,51.80
2023-10-20T00:26:21.137Z,51.87
2023-10-20T00:28:47.805Z,51.82
2023-10-20T00:31:14.754Z,52.08
2023-10-20T00:33:41.536Z,52.17
2023-10-20T00:36:09.634Z,52.43
2023-10-20T00:38:36.623Z,52.89
2023-10-20T00:41:03.491Z,52.74
2023-10-20T00:43:37.285Z,52.62
2023-10-20T00:46:05.969Z,52.70
2023-10-20T00:48:34.009Z,52.37
2023-10-20T00:51:06.854Z,52.29
2023-10-20T00:53:36.287Z,52.45
2023-10-20T00:56:05.821Z,52.56
2023-10-20T00:58:33.386Z,52.80
2023-10-20T01:01:00.346Z,53.36
2023-10-20T01:03:28.766Z,52.86
2023-10-20T01:05:57.390Z,52.70
2023-10-20T01:08:24.762Z,52.79
2023-10-20T01:10:54.477Z,54.08
2023-10-20T01:13:23.106Z,53.68
2023-10-20T01:15:50.471Z,52.96
2023-10-20T01:18:17.332Z,52.97
2023-10-20T01:20:46.177Z,52.86
2023-10-20T01:23:12.941Z,52.91
2023-10-20T01:25:39.620Z,52.93
2023-10-20T01:28:06.464Z,52.92
2023-10-20T01:30:33.212Z,52.91
2023-10-20T01:33:00.766Z,53.40
2023-10-20T01:35:27.692Z,53.52
2023-10-20T01:37:54.513Z,53.55
2023-10-20T01:40:21.311Z,53.57
2023-10-20T01:42:47.988Z,53.30
2023-10-20T01:45:14.658Z,53.21
2023-10-20T01:47:41.691Z,53.02
2023-10-20T01:50:09.121Z,52.90
2023-10-20T01:52:36.059Z,53.01
2023-10-20T01:55:02.812Z,53.33
2023-10-20T01:57:29.552Z,53.14
2023-10-20T01:59:56.212Z,52.96
2023-10-20T02:02:23.073Z,53.09
2023-10-20T02:04:49.767Z,54.42
2023-10-20T02:07:16.569Z,53.98
2023-10-20T02:09:43.321Z,53.84
2023-10-20T02:12:11.613Z,54.01
2023-10-20T02:14:38.372Z,53.61
2023-10-20T02:17:05.238Z,53.54
2023-10-20T02:19:32.098Z,53.14
2023-10-20T02:22:00.822Z,53.10
2023-10-20T02:24:27.778Z,53.16
2023-10-20T02:26:55.094Z,52.93
2023-10-20T02:29:22.029Z,52.81
2023-10-20T02:31:48.726Z,53.20
2023-10-20T02:34:15.430Z,53.14
2023-10-20T02:36:43.613Z,53.14
2023-10-20T02:39:11.853Z,53.40
2023-10-20T02:41:38.509Z,53.23
2023-10-20T02:44:05.559Z,53.16
2023-10-20T02:46:32.409Z,53.38
2023-10-20T02:48:59.453Z,53.37
2023-10-20T02:51:26.217Z,53.13
2023-10-20T02:53:52.906Z,53.36
2023-10-20T02:56:21.064Z,52.91
2023-10-20T02:58:48.583Z,52.74
2023-10-20T03:01:18.363Z,53.02
2023-10-20T03:03:45.853Z,53.37
2023-10-20T03:06:12.875Z,53.55
2023-10-20T03:08:40.898Z,53.15
2023-10-20T03:11:09.508Z,53.27
2023-10-20T03:13:36.557Z,53.19
2023-10-20T03:16:03.336Z,53.47
2023-10-20T03:18:30.081Z,53.35
2023-10-20T03:21:03.902Z,54.03
2023-10-20T03:23:32.173Z,53.93
2023-10-20T03:25:58.970Z,53.67
2023-10-20T03:28:25.808Z,53.63
2023-10-20T03:30:52.832Z,53.60
2023-10-20T03:33:20.330Z,53.45
2023-10-20T03:35:47.525Z,53.18
2023-10-20T03:38:15.738Z,53.61
2023-10-20T03:40:43.119Z,53.33
2023-10-20T03:43:11.057Z,53.36
2023-10-20T03:45:53.249Z,53.44
2023-10-20T03:48:24.867Z,53.74
2023-10-20T03:50:53.344Z,53.69
2023-10-20T03:53:23.671Z,53.75
2023-10-20T03:56:00.763Z,54.00
2023-10-20T03:58:29.761Z,54.45
2023-10-20T04:00:58.740Z,54.53
2023-10-20T04:03:28.762Z,54.78
2023-10-20T04:05:55.512Z,55.13
2023-10-20T04:08:24.095Z,55.30
2023-10-20T04:11:00.622Z,56.11
2023-10-20T04:13:30.653Z,56.49
2023-10-20T04:15:57.567Z,56.03
2023-10-20T04:18:24.706Z,55.25
2023-10-20T04:20:52.034Z,56.22
2023-10-20T04:23:19.004Z,55.92
2023-10-20T04:25:55.117Z,55.78
2023-10-20T04:28:33.537Z,55.74
2023-10-20T04:31:19.204Z,55.85
2023-10-20T04:34:04.590Z,55.41
2023-10-20T04:36:49.945Z,55.41
2023-10-20T04:39:35.559Z,55.36
2023-10-20T04:42:04.727Z,55.16
2023-10-20T04:44:49.725Z,55.53
2023-10-20T04:47:26.291Z,55.58
2023-10-20T04:50:16.548Z,55.42
2023-10-20T04:53:03.148Z,55.22
2023-10-20T04:55:32.763Z,55.64
2023-10-20T04:58:22.811Z,55.87
2023-10-20T05:00:57.887Z,56.08
2023-10-20T05:03:32.901Z,56.67
2023-10-20T05:06:20.812Z,56.21
2023-10-20T05:08:48.689Z,56.22
2023-10-20T05:11:16.693Z,56.73
2023-10-20T05:13:43.781Z,55.80
2023-10-20T05:16:10.839Z,55.76
2023-10-20T05:18:41.358Z,56.07
2023-10-20T05:21:14.880Z,56.87
2023-10-20T05:23:42.413Z,57.88
2023-10-20T05:26:12.371Z,58.43
2023-10-20T05:28:39.174Z,58.48
2023-10-20T05:31:06.116Z,57.88
2023-10-20T05:33:32.861Z,57.75
2023-10-20T05:36:05.072Z,57.62
2023-10-20T05:38:33.345Z,57.64
2023-10-20T05:41:01.014Z,57.29
2023-10-20T05:43:28.806Z,56.76
2023-10-20T05:45:55.643Z,56.72
2023-10-20T05:48:22.519Z,56.45
2023-10-20T05:51:01.140Z,58.38
2023-10-20T05:53:28.001Z,58.83
2023-10-20T05:55:54.747Z,57.29
2023-10-20T05:58:21.764Z,59.11
2023-10-20T06:01:02.411Z,58.63
2023-10-20T06:03:30.541Z,57.48
2023-10-20T06:06:01.897Z,56.87
2023-10-20T06:08:30.480Z,56.79
2023-10-20T06:11:04.835Z,56.31
2023-10-20T06:13:33.972Z,56.54
2023-10-20T06:16:12.419Z,56.23
2023-10-20T06:18:40.838Z,56.10
2023-10-20T06:21:15.182Z,57.14
2023-10-20T06:23:42.377Z,57.16
2023-10-20T06:26:09.312Z,56.99
2023-10-20T06:28:35.946Z,57.27
2023-10-20T06:31:16.640Z,56.58
2023-10-20T06:33:44.607Z,57.85
2023-10-20T06:36:19.847Z,57.82
2023-10-20T06:38:46.730Z,56.45
2023-10-20T06:41:17.343Z,56.17
2023-10-20T06:43:48.451Z,56.56
2023-10-20T06:46:15.433Z,56.90
2023-10-20T06:48:42.182Z,56.60
2023-10-20T06:51:08.876Z,54.99
2023-10-20T06:53:35.737Z,54.13
2023-10-20T06:56:15.271Z,53.77
2023-10-20T06:58:43.632Z,54.09
2023-10-20T07:01:10.330Z,54.53
2023-10-20T07:03:37.133Z,52.74
2023-10-20T07:06:08.610Z,52.45
2023-10-20T07:08:35.563Z,51.97
2023-10-20T07:11:03.772Z,53.47
2023-10-20T07:13:32.896Z,53.14
2023-10-20T07:15:59.765Z,54.49
2023-10-20T07:18:26.415Z,53.53
2023-10-20T07:20:56.068Z,52.28
2023-10-20T07:23:24.646Z,51.53
2023-10-20T07:25:51.444Z,50.94
2023-10-20T07:28:18.239Z,51.07
2023-10-20T07:30:44.906Z,51.27
2023-10-20T07:33:12.213Z,51.17
2023-10-20T07:35:40.204Z,52.80
2023-10-20T07:38:07.004Z,52.90
2023-10-20T07:40:36.449Z,52.04
2023-10-20T07:43:07.431Z,51.78
2023-10-20T07:45:43.792Z,54.43
2023-10-20T07:48:12.206Z,52.12
2023-10-20T07:50:39.193Z,51.38
2023-10-20T07:53:06.561Z,52.16
2023-10-20T07:55:33.347Z,52.54
2023-10-20T07:58:00.166Z,51.21
2023-10-20T08:00:26.866Z,51.00
2023-10-20T08:02:55.593Z,50.60
2023-10-20T08:05:26.815Z,51.64
2023-10-20T08:07:54.536Z,51.73
2023-10-20T08:10:23.047Z,51.24
2023-10-20T08:12:50.508Z,50.99
2023-10-20T08:15:17.625Z,50.27
2023-10-20T08:17:46.824Z,52.65
2023-10-20T08:20:14.168Z,50.61
2023-10-20T08:22:41.732Z,49.97
2023-10-20T08:25:10.337Z,49.98
2023-10-20T08:27:37.939Z,49.13
2023-10-20T08:30:06.269Z,50.27
2023-10-20T08:32:33.433Z,49.69
2023-10-20T08:35:00.350Z,49.03
2023-10-20T08:37:27.277Z,48.82
2023-10-20T08:39:55.697Z,49.30
2023-10-20T08:42:23.162Z,48.98
2023-10-20T08:44:51.023Z,48.71
2023-10-20T08:47:18.600Z,48.59
2023-10-20T08:49:47.255Z,48.30
2023-10-20T08:52:14.729Z,49.50
2023-10-20T08:54:42.410Z,50.12
2023-10-20T08:57:09.613Z,48.95
2023-10-20T08:59:37.765Z,48.18
2023-10-20T09:02:05.320Z,49.85
2023-10-20T09:04:32.420Z,48.75
2023-10-20T09:07:02.822Z,49.11
2023-10-20T09:09:30.617Z,47.56
2023-10-20T09:11:57.419Z,47.73
2023-10-20T09:14:26.118Z,47.16
2023-10-20T09:16:55.151Z,48.21
2023-10-20T09:19:21.845Z,47.62
2023-10-20T09:21:48.607Z,48.49
2023-10-20T09:24:16.199Z,48.08
2023-10-20T09:26:43.065Z,48.55
2023-10-20T09:29:10.834Z,47.02
2023-10-20T09:31:38.926Z,46.76
2023-10-20T09:34:06.045Z,46.34
2023-10-20T09:36:34.044Z,48.34
2023-10-20T09:39:02.285Z,48.28
2023-10-20T09:41:30.365Z,47.72
2023-10-20T09:44:08.249Z,48.15
2023-10-20T09:46:38.141Z,46.74
2023-10-20T09:49:15.872Z,45.69
2023-10-20T09:51:49.435Z,47.05
2023-10-20T09:54:20.289Z,46.24
2023-10-20T09:56:47.965Z,46.14
2023-10-20T09:59:22.148Z,45.69
2023-10-20T10:01:49.146Z,44.73
2023-10-20T10:04:15.858Z,45.91
2023-10-20T10:06:46.865Z,45.08
2023-10-20T10:09:16.372Z,45.38
2023-10-20T10:11:46.951Z,44.52
2023-10-20T10:14:24.386Z,44.72
2023-10-20T10:16:56.325Z,43.69
2023-10-20T10:19:28.233Z,44.02
2023-10-20T10:22:02.612Z,43.58
2023-10-20T10:24:35.941Z,44.41
2023-10-20T10:27:08.011Z,43.46
2023-10-20T10:29:52.244Z,44.65
2023-10-20T10:32:20.913Z,44.07
2023-10-20T10:34:50.568Z,43.04
2023-10-20T10:37:36.495Z,42.17
2023-10-20T10:40:10.712Z,42.99
2023-10-20T10:42:41.599Z,42.96
2023-10-20T10:45:16.056Z,42.27
2023-10-20T10:47:44.806Z,41.93
2023-10-20T10:50:11.706Z,42.43
2023-10-20T10:52:38.421Z,42.97
2023-10-20T10:55:05.478Z,42.77
2023-10-20T10:57:32.570Z,42.40
2023-10-20T11:00:01.856Z,41.37
2023-10-20T11:02:29.514Z,41.27
2023-10-20T11:04:56.405Z,40.98
2023-10-20T11:07:23.813Z,40.91
2023-10-20T11:09:52.528Z,40.66
2023-10-20T11:12:19.226Z,40.19
2023-10-20T11:14:45.919Z,40.14
2023-10-20T11:17:14.933Z,40.21
2023-10-20T11:19:42.431Z,39.74
2023-10-20T11:22:19.105Z,38.86
2023-10-20T11:24:53.850Z,40.26
2023-10-20T11:27:21.115Z,38.66
2023-10-20T11:29:58.326Z,38.08
2023-10-20T11:32:27.278Z,37.33
2023-10-20T11:34:54.325Z,37.54
2023-10-20T11:37:21.044Z,36.99
2023-10-20T11:39:48.337Z,36.73
2023-10-20T11:42:15.248Z,37.46
2023-10-20T11:44:42.193Z,37.51
2023-10-20T11:47:08.909Z,36.94
2023-10-20T11:49:35.540Z,36.83
2023-10-20T11:52:08.695Z,36.29
2023-10-20T11:54:35.496Z,35.65
2023-10-20T11:57:03.093Z,35.25
2023-10-20T11:59:29.856Z,35.60
2023-10-20T12:01:56.745Z,35.12
2023-10-20T12:04:23.452Z,35.14
2023-10-20T12:06:50.168Z,35.06
2023-10-20T12:09:20.953Z,35.48
2023-10-20T12:11:48.458Z,35.41
2023-10-20T12:14:16.299Z,34.54
2023-10-20T12:16:44.010Z,32.17
2023-10-20T12:19:10.797Z,29.25
2023-10-20T12:21:37.505Z,28.99
2023-10-20T12:24:05.573Z,28.53
2023-10-20T12:26:32.370Z,29.39
2023-10-20T12:28:59.062Z,28.86
2023-10-20T12:31:26.034Z,29.21
2023-10-20T12:33:52.893Z,29.77
2023-10-20T12:36:19.648Z,30.19
2023-10-20T12:38:46.758Z,28.59
2023-10-20T12:41:17.084Z,29.08
2023-10-20T12:43:45.722Z,29.22
2023-10-20T12:46:12.867Z,29.38
2023-10-20T12:48:42.533Z,30.62
2023-10-20T12:51:13.656Z,29.23
2023-10-20T12:53:42.035Z,29.43
2023-10-20T12:56:09.073Z,28.17
2023-10-20T12:58:39.683Z,27.24
2023-10-20T13:01:07.711Z,26.37
2023-10-20T13:03:34.753Z,25.86
2023-10-20T13:06:01.748Z,25.89
2023-10-20T13:08:28.616Z,25.71
2023-10-20T13:10:55.350Z,24.98
2023-10-20T13:13:22.127Z,24.65
2023-10-20T13:15:48.811Z,24.32
2023-10-20T13:18:16.860Z,26.08
2023-10-20T13:20:46.713Z,25.09
2023-10-20T13:23:14.064Z,25.39
2023-10-20T13:25:40.824Z,24.91
2023-10-20T13:31:16.524Z,24.21
2023-10-20T13:33:46.397Z,24.00
2023-10-20T13:36:13.260Z,23.79
2023-10-20T13:38:40.213Z,23.82
2023-10-20T13:41:07.073Z,24.75
2023-10-20T13:43:36.777Z,24.40
2023-10-20T13:48:55.805Z,24.83
2023-10-20T13:51:22.526Z,24.42
2023-10-20T13:53:49.191Z,24.35
2023-10-20T13:56:16.790Z,23.73
2023-10-20T13:58:43.523Z,23.86
2023-10-20T14:01:10.333Z,24.88
2023-10-20T14:03:37.356Z,24.77
2023-10-20T14:06:07.856Z,24.41
2023-10-20T14:08:35.411Z,24.55
2023-10-20T14:11:05.292Z,24.80
2023-10-20T14:16:25.875Z,24.23
2023-10-20T14:18:52.646Z,23.25
2023-10-20T14:21:19.371Z,24.89
2023-10-20T14:23:46.013Z,23.77
2023-10-20T14:26:12.789Z,24.27
2023-10-20T14:28:39.512Z,24.13
2023-10-20T14:31:07.039Z,23.94
2023-10-20T14:33:35.394Z,22.82
2023-10-20T14:36:02.774Z,24.34
2023-10-20T14:38:33.424Z,25.01
2023-10-20T14:41:08.605Z,24.81
2023-10-20T14:43:37.225Z,25.26
2023-10-20T14:46:06.027Z,25.58
2023-10-20T14:48:34.273Z,25.50
2023-10-20T14:51:05.494Z,25.32
2023-10-20T14:53:32.262Z,25.64
2023-10-20T14:55:58.964Z,25.44
2023-10-20T15:01:16.983Z,26.03
2023-10-20T15:03:44.399Z,25.66
2023-10-20T15:06:11.292Z,25.26
2023-10-20T15:08:38.400Z,26.01
2023-10-20T15:11:09.018Z,26.54
2023-10-20T15:13:36.346Z,25.00
2023-10-20T15:16:06.222Z,25.48
2023-10-20T15:18:33.168Z,25.22
2023-10-20T15:21:00.176Z,27.22
2023-10-20T15:23:27.076Z,26.25
2023-10-20T15:25:53.824Z,25.18
2023-10-20T15:28:22.116Z,24.96
2023-10-20T15:30:49.280Z,24.43
2023-10-20T15:33:18.979Z,24.10
2023-10-20T15:35:47.748Z,24.56
2023-10-20T15:38:14.663Z,24.73
2023-10-20T15:40:41.753Z,24.10
2023-10-20T15:43:08.499Z,24.24
2023-10-20T15:45:35.193Z,24.93
2023-10-20T15:48:07.767Z,25.04
2023-10-20T15:51:05.405Z,23.95
2023-10-20T15:53:57.700Z,23.73
2023-10-20T15:59:15.774Z,23.94
2023-10-20T16:01:42.762Z,24.13
2023-10-20T16:04:09.547Z,24.65
2023-10-20T16:06:36.513Z,24.28
2023-10-20T16:09:06.835Z,24.92
2023-10-20T16:11:34.222Z,25.15
2023-10-20T16:14:04.366Z,24.84
2023-10-20T16:16:32.412Z,24.79
2023-10-20T16:18:59.221Z,24.38
2023-10-20T16:21:26.006Z,24.28
2023-10-20T16:23:52.766Z,23.37
2023-10-20T16:26:19.545Z,23.87
2023-10-20T16:28:46.193Z,24.25
2023-10-20T16:31:13.156Z,23.50
2023-10-20T16:33:39.922Z,24.27
2023-10-20T16:39:27.226Z,24.49
2023-10-20T16:41:54.032Z,24.70
2023-10-20T16:44:20.796Z,23.62
2023-10-20T16:46:48.320Z,24.62
2023-10-20T16:49:15.073Z,23.96
2023-10-20T16:51:44.725Z,23.73
2023-10-20T16:54:12.496Z,24.10
2023-10-20T16:56:39.368Z,24.84
2023-10-20T17:01:57.563Z,25.06
2023-10-20T17:07:30.202Z,24.90
2023-10-20T17:09:58.938Z,24.71
2023-10-20T17:12:25.709Z,24.43
2023-10-20T17:15:06.479Z,24.71
2023-10-20T17:17:33.294Z,25.28
2023-10-20T17:20:00.067Z,25.35
2023-10-20T17:22:30.409Z,23.90
2023-10-20T17:24:57.138Z,24.33
2023-10-20T17:27:23.854Z,24.22
2023-10-20T17:29:51.476Z,23.08
2023-10-20T17:32:20.042Z,25.17
2023-10-20T17:34:47.167Z,24.22
2023-10-20T17:37:18.393Z,24.01
2023-10-20T17:39:45.184Z,24.06
2023-10-20T17:42:11.953Z,24.50
2023-10-20T17:44:41.870Z,24.75
2023-10-20T17:48:00.074Z,24.16
2023-10-20T17:50:26.798Z,24.41
2023-10-20T17:53:18.479Z,24.23
2023-10-20T17:55:49.306Z,24.17
2023-10-20T17:58:17.012Z,24.73
2023-10-20T18:00:46.095Z,23.63
2023-10-20T18:03:13.284Z,23.22
2023-10-20T18:05:40.672Z,23.48
2023-10-20T18:08:07.735Z,24.82
2023-10-20T18:10:35.765Z,23.78
2023-10-20T18:13:02.486Z,23.44
2023-10-20T18:15:29.083Z,23.26
2023-10-20T18:17:56.076Z,23.36
2023-10-20T18:23:21.523Z,22.88
2023-10-20T18:25:48.463Z,24.15
2023-10-20T18:28:15.255Z,23.73
2023-10-20T18:30:42.435Z,24.16
2023-10-20T18:33:09.638Z,23.52
2023-10-20T18:35:37.868Z,23.90
2023-10-20T18:38:07.234Z,23.06
2023-10-20T18:40:37.252Z,22.94
2023-10-20T18:46:00.269Z,23.01
2023-10-20T18:48:28.191Z,22.58
2023-10-20T18:51:07.844Z,22.54
2023-10-20T18:53:36.183Z,22.04
2023-10-20T18:56:06.447Z,22.24
2023-10-20T18:58:33.086Z,22.76
2023-10-20T19:01:00.906Z,22.48
2023-10-20T19:03:27.804Z,22.85
2023-10-20T19:05:54.692Z,23.78
2023-10-20T19:08:21.916Z,24.45
2023-10-20T19:10:53.199Z,24.69
2023-10-20T19:13:23.182Z,24.58
2023-10-20T19:15:53.973Z,25.12
2023-10-20T19:18:21.617Z,24.80
2023-10-20T19:20:48.655Z,25.28
2023-10-20T19:23:16.302Z,25.35
2023-10-20T19:25:43.085Z,24.47
2023-10-20T19:28:11.051Z,24.72
2023-10-20T19:30:38.052Z,24.96
2023-10-20T19:33:05.188Z,24.24
2023-10-20T19:35:32.582Z,23.98
2023-10-20T19:38:00.318Z,23.78
2023-10-20T19:40:27.678Z,23.26
2023-10-20T19:42:54.911Z,23.66
2023-10-20T19:45:21.577Z,23.31
2023-10-20T19:47:48.719Z,23.70
2023-10-20T19:50:15.854Z,23.18
2023-10-20T19:52:42.762Z,23.42
2023-10-20T19:55:10.123Z,23.84
2023-10-20T19:57:36.885Z,24.45
2023-10-20T20:00:04.602Z,23.86
2023-10-20T20:02:31.956Z,23.64
2023-10-20T20:04:59.049Z,23.37
2023-10-20T20:07:27.893Z,23.75
2023-10-20T20:09:55.713Z,23.53
2023-10-20T20:12:25.352Z,23.74
2023-10-20T20:14:52.226Z,23.27
2023-10-20T20:17:19.807Z,23.09
2023-10-20T20:19:46.624Z,23.31
2023-10-20T20:22:13.309Z,23.63
2023-10-20T20:24:39.992Z,22.54
2023-10-20T20:27:06.776Z,22.33
2023-10-20T20:29:35.206Z,23.00
2023-10-20T20:32:02.045Z,22.47
2023-10-20T20:34:28.741Z,22.26
2023-10-20T20:36:55.372Z,22.78
2023-10-20T20:39:22.037Z,22.79
2023-10-20T20:41:48.669Z,23.41
2023-10-20T20:44:23.245Z,23.45
2023-10-20T20:46:49.972Z,23.05
2023-10-20T20:49:20.570Z,22.85
2023-10-20T20:51:47.871Z,24.31
2023-10-20T20:54:15.093Z,23.92
2023-10-20T20:56:42.028Z,23.43
2023-10-20T20:59:09.594Z,22.02
2023-10-20T21:04:29.185Z,22.25
2023-10-20T21:06:55.934Z,22.37
2023-10-20T21:09:24.702Z,22.93
2023-10-20T21:11:51.491Z,22.79
2023-10-20T21:14:18.645Z,22.21
2023-10-20T21:16:45.603Z,21.82
2023-10-20T21:19:12.413Z,22.81
2023-10-20T21:21:39.142Z,22.50
2023-10-20T21:24:06.883Z,23.16
2023-10-20T21:26:33.798Z,23.47
2023-10-20T21:29:00.544Z,23.76
2023-10-20T21:31:27.588Z,24.35
2023-10-20T21:33:54.332Z,25.26
2023-10-20T21:36:21.042Z,25.83
2023-10-20T21:38:47.785Z,24.44
2023-10-20T21:41:14.497Z,23.23
2023-10-20T21:43:41.258Z,23.97
2023-10-20T21:46:08.376Z,23.59
2023-10-20T21:48:35.212Z,23.72
2023-10-20T21:51:03.808Z,23.54
2023-10-20T21:53:33.908Z,23.03
2023-10-20T21:56:12.882Z,24.44
2023-10-20T21:58:39.677Z,24.31
2023-10-20T22:01:07.796Z,24.29
2023-10-20T22:03:34.704Z,24.12
2023-10-20T22:06:02.440Z,23.49
2023-10-20T22:08:29.235Z,25.27
2023-10-20T22:10:55.948Z,27.11
2023-10-20T22:13:22.788Z,28.23
2023-10-20T22:15:49.497Z,28.20
2023-10-20T22:18:16.822Z,28.71
2023-10-20T22:20:44.380Z,30.48
2023-10-20T22:23:11.771Z,30.28
2023-10-20T22:25:39.783Z,28.70
2023-10-20T22:28:07.254Z,29.24
2023-10-20T22:30:34.044Z,29.68
2023-10-20T22:33:01.044Z,28.27
2023-10-20T22:35:27.827Z,31.33
2023-10-20T22:37:54.725Z,30.58
2023-10-20T22:40:22.390Z,30.78
2023-10-20T22:42:49.183Z,30.94
2023-10-20T22:45:16.078Z,31.53
2023-10-20T22:47:42.940Z,32.69
2023-10-20T22:50:10.199Z,31.97
2023-10-20T22:52:36.872Z,31.73
2023-10-20T22:55:05.016Z,31.37
2023-10-20T22:57:33.246Z,30.93
2023-10-20T23:00:00.209Z,32.24
2023-10-20T23:02:27.192Z,32.95
2023-10-20T23:04:54.169Z,32.52
2023-10-20T23:07:20.808Z,32.73
2023-10-20T23:09:47.801Z,32.77
2023-10-20T23:12:14.629Z,31.81
2023-10-20T23:14:41.515Z,31.62
2023-10-20T23:17:09.198Z,31.99
2023-10-20T23:19:36.039Z,33.04
2023-10-20T23:22:03.136Z,32.70
2023-10-20T23:24:29.817Z,33.22
2023-10-20T23:26:56.547Z,32.92
2023-10-20T23:29:24.494Z,32.34
2023-10-20T23:31:51.227Z,32.55
2023-10-20T23:34:18.123Z,32.95
2023-10-20T23:36:44.778Z,33.54
2023-10-20T23:39:11.508Z,33.30
2023-10-20T23:41:38.311Z,33.44
2023-10-20T23:44:05.354Z,34.00
2023-10-20T23:46:32.150Z,34.62
2023-10-20T23:48:58.954Z,35.00
2023-10-20T23:51:25.710Z,35.12
2023-10-20T23:53:52.427Z,34.19
2023-10-20T23:56:19.067Z,34.51
2023-10-20T23:58:45.800Z,34.54
